Time;durP1;ratioP1;P1;durP2;ratioP2;P2;SDS_P1;SDS_P2;PMS_P1;PMS_P2;Temp;Humidity;BMP_temperature;BMP_pressure;BME280_temperature;BME280_humidity;BME280_pressure;Samples;Min_cycle;Max_cycle;Signal;HPM_P1;HPM_P2
2024/01/24 00:01:37;;;;;;;5.40;2.50;;;;;;;3.00;77.18;97327.52;108385;1283;22533;-83
2024/01/24 00:05:05;;;;;;;5.90;2.40;;;;;;;2.97;76.47;97320.50;108774;1275;137911;-83
2024/01/24 00:08:32;;;;;;;4.70;2.20;;;;;;;2.98;76.96;97307.48;108261;1283;22541;-84
2024/01/24 00:11:29;;;;;;;5.40;2.10;;;;;;;2.98;76.86;97302.14;108376;1278;137072;-84
2024/01/24 00:14:40;;;;;;;8.20;2.70;;;;;;;2.97;76.41;97302.58;108456;1280;22540;-83
2024/01/24 00:17:43;;;;;;;;;;;;;;;;;;;;;
2024/01/24 00:21:03;;;;;;;5.10;2.30;;;;;;;2.97;75.78;97297.23;108399;1282;22541;-84
2024/01/24 00:24:22;;;;;;;7.60;2.00;;;;;;;3.00;75.66;97289.99;108283;1282;138376;-83
2024/01/24 00:27:25;;;;;;;6.00;2.00;;;;;;;3.04;75.31;97285.76;108394;1283;23033;-84
2024/01/24 00:30:37;;;;;;;;;;;;;;;;;;;;;
2024/01/24 00:33:53;;;;;;;;;;;;;;;;;;;;;
2024/01/24 00:37:26;;;;;;;6.50;2.60;;;;;;;3.13;73.82;97282.54;108966;1278;25237;-83
2024/01/24 00:40:38;;;;;;;4.20;2.50;;;;;;;3.16;73.57;97259.76;108275;1278;138608;-83
2024/01/24 00:43:28;;;;;;;;;;;;;;;;;;;;;
2024/01/24 00:46:42;;;;;;;5.60;2.10;;;;;;;3.14;72.67;97236.44;108259;1282;137489;-84
2024/01/24 00:49:59;;;;;;;;;;;;;;;;;;;;;
2024/01/24 00:53:03;;;;;;;5.10;2.30;;;;;;;3.15;73.28;97232.56;108319;1283;137359;-83
2024/01/24 00:56:10;;;;;;;;;;;;;;;3.15;72.97;97229.34;108443;1278;22534;-84
2024/01/24 00:59:37;;;;;;;5.30;1.80;;;;;;;3.13;73.59;97230.65;108353;1277;124032;-83
2024/01/24 01:02:55;;;;;;;7.00;2.30;;;;;;;3.12;73.31;97229.58;108500;1282;22569;-83
2024/01/24 01:06:04;;;;;;;;;;;;;;;;;;;;;
2024/01/24 01:09:19;;;;;;;4.00;1.90;;;;;;;3.08;73.78;97212.59;108354;1282;22524;-83
2024/01/24 01:12:31;;;;;;;6.40;3.00;;;;;;;3.08;74.01;97213.95;108304;1273;137033;-83
2024/01/24 01:16:06;;;;;;;6.70;2.80;;;;;;;3.09;73.89;97210.13;108376;1282;22570;-84
2024/01/24 01:19:05;;;;;;;7.60;2.80;;;;;;;3.11;74.32;97211.02;108331;1273;137366;-84
2024/01/24 01:22:18;;;;;;;8.60;4.70;;;;;;;3.11;74.60;97217.18;108498;1282;23334;-83
2024/01/24 01:25:34;;;;;;;8.30;3.30;;;;;;;3.06;75.15;97214.58;108490;1280;24398;-84
2024/01/24 01:29:01;;;;;;;10.10;3.60;;;;;;;3.04;75.53;97212.51;108285;1277;137478;-83
2024/01/24 01:32:29;;;;;;;5.70;3.20;;;;;;;3.01;75.69;97205.06;108395;1279;22536;-83
2024/01/24 01:35:41;;;;;;;;;;;;;;;;;;;;;
2024/01/24 01:38:54;;;;;;;7.80;3.10;;;;;;;2.93;76.32;97192.79;108452;1283;22517;-83
2024/01/24 01:41:51;;;;;;;;;;;;;;;;;;;;;
2024/01/24 01:45:20;;;;;;;7.40;2.90;;;;;;;2.96;77.17;97190.55;108474;1283;24235;-84
2024/01/24 01:47:56;;;;;;;8.70;3.90;;;;;;;2.98;77.51;97175.50;108315;1282;137583;-83
2024/01/24 01:51:11;;;;;;;5.60;3.40;;;;;;;2.98;77.61;97159.36;108364;1283;22625;-83
2024/01/24 01:54:03;;;;;;;;;;;;;;;2.98;78.16;97146.18;108374;1283;137271;-83
2024/01/24 01:57:15;;;;;;;;;;;;;;;;;;;;;
2024/01/24 02:00:44;;;;;;;8.90;4.90;;;;;;;2.95;80.15;97127.30;108174;1282;137912;-84
2024/01/24 02:03:57;;;;;;;8.90;3.50;;;;;;;2.94;80.50;97120.65;108500;1282;22553;-83
2024/01/24 02:07:06;;;;;;;;;;;;;;;2.95;80.88;97116.98;108464;1278;22595;-83
2024/01/24 02:10:23;;;;;;;6.70;4.00;;;;;;;2.94;81.57;97104.44;108384;1283;22562;-83
2024/01/24 02:13:21;;;;;;;7.40;3.30;;;;;;;2.92;81.72;97090.84;108390;1277;22559;-84
2024/01/24 02:16:48;;;;;;;8.70;3.70;;;;;;;2.94;81.78;97080.84;108388;1283;22637;-83
2024/01/24 02:20:06;;;;;;;7.30;3.30;;;;;;;2.97;81.99;97074.73;108304;1284;22537;-83
2024/01/24 02:23:26;;;;;;;;;;;;;;;;;;;;;
2024/01/24 02:27:04;;;;;;;8.00;4.30;;;;;;;3.02;82.78;97054.03;108342;1284;22526;-83
2024/01/24 02:30:31;;;;;;;7.20;3.80;;;;;;;2.99;83.45;97044.11;108149;1284;137048;-83
2024/01/24 02:33:59;;;;;;;8.60;4.00;;;;;;;2.97;83.74;97035.88;108889;1284;22581;-84
2024/01/24 02:36:59;;;;;;;8.40;2.90;;;;;;;3.02;84.12;97008.30;108317;1284;137760;-84
2024/01/24 02:40:29;;;;;;;10.00;4.90;;;;;;;3.05;84.40;97008.25;108442;1284;22548;-83
2024/01/24 02:43:41;;;;;;;7.60;2.70;;;;;;;3.05;84.70;97001.39;108411;1284;22877;-83
2024/01/24 02:46:54;;;;;;;10.00;3.30;;;;;;;3.05;85.18;96979.48;108329;1281;22546;-84
2024/01/24 02:50:13;;;;;;;;;;;;;;;;;;;;;
2024/01/24 02:53:18;;;;;;;3.90;3.20;;;;;;;3.09;85.25;96963.63;108210;1284;138062;-84
2024/01/24 02:56:08;;;;;;;;;;;;;;;;;;;;;
2024/01/24 02:58:48;;;;;;;7.70;3.30;;;;;;;3.11;85.64;96953.73;108243;1284;137621;-84
2024/01/24 03:01:32;;;;;;;14.70;4.60;;;;;;;3.12;85.87;96946.45;108347;1284;22529;-82
2024/01/24 03:04:29;;;;;;;;;;;;;;;;;;;;;
2024/01/24 03:07:50;;;;;;;8.10;3.30;;;;;;;3.16;86.26;96926.79;108437;1282;23291;-82
2024/01/24 03:11:04;;;;;;;8.00;3.20;;;;;;;3.20;86.45;96911.84;108448;1283;22582;-83
2024/01/24 03:13:35;;;;;;;8.00;3.00;;;;;;;3.23;86.06;96906.99;108437;1278;24173;-83
2024/01/24 03:16:37;;;;;;;;;;;;;;;;;;;;;
2024/01/24 03:19:28;;;;;;;;;;;;;;;3.26;86.06;96885.21;108538;1282;22551;-84
2024/01/24 03:22:37;;;;;;;8.50;2.80;;;;;;;3.27;86.03;96879.42;108451;1271;22527;-83
2024/01/24 03:25:27;;;;;;;;;;;;;;;;;;;;;
2024/01/24 03:28:12;;;;;;;10.90;3.60;;;;;;;3.27;85.62;96868.63;108421;1278;25346;-84
2024/01/24 03:31:09;;;;;;;7.50;3.60;;;;;;;3.26;85.64;96878.54;108340;1283;137649;-84
2024/01/24 03:33:54;;;;;;;9.00;3.90;;;;;;;3.24;85.81;96877.08;108538;1278;23413;-83
2024/01/24 03:36:48;;;;;;;12.00;4.30;;;;;;;3.26;85.69;96882.83;108285;1282;138817;-84
2024/01/24 03:39:19;;;;;;;4.90;3.20;;;;;;;3.26;85.93;96883.34;108427;1283;22557;-84
2024/01/24 03:42:29;;;;;;;;;;;;;;;;;;;;;
2024/01/24 03:45:22;;;;;;;9.30;3.40;;;;;;;3.27;86.03;96866.26;108422;1278;22744;-84
2024/01/24 03:48:19;;;;;;;;;;;;;;;;;;;;;
2024/01/24 03:51:17;;;;;;;;;;;;;;;;;;;;;
2024/01/24 03:54:15;;;;;;;7.20;3.30;;;;;;;3.34;85.96;96864.34;108303;1280;137568;-84
2024/01/24 03:57:33;;;;;;;9.70;3.60;;;;;;;3.37;86.04;96847.15;108396;1277;22597;-83
2024/01/24 04:01:01;;;;;;;7.00;3.00;;;;;;;3.39;86.13;96824.91;108317;1275;137318;-84
2024/01/24 04:04:13;;;;;;;9.10;2.80;;;;;;;3.42;85.93;96806.83;108406;1282;22534;-81
2024/01/24 04:07:40;;;;;;;7.70;2.70;;;;;;;3.48;85.63;96793.50;108320;1282;138267;-84
2024/01/24 04:11:07;;;;;;;6.40;2.70;;;;;;;3.52;85.81;96778.45;108258;1284;22540;-84
2024/01/24 04:14:35;;;;;;;7.40;2.90;;;;;;;3.59;85.66;96771.48;108716;1279;22593;-84
2024/01/24 04:17:47;;;;;;;5.60;3.50;;;;;;;3.62;85.81;96786.48;108193;1284;136578;-84
2024/01/24 04:21:14;;;;;;;5.90;2.50;;;;;;;3.66;85.66;96771.29;108311;1284;22667;-84
2024/01/24 04:24:36;;;;;;;8.10;2.60;;;;;;;3.70;85.16;96747.95;108224;1283;138386;-84
2024/01/24 04:28:03;;;;;;;7.20;2.80;;;;;;;3.74;85.18;96749.81;108407;1281;22536;-84
2024/01/24 04:31:31;;;;;;;5.90;2.40;;;;;;;3.76;85.41;96743.85;108012;1282;137338;-84
2024/01/24 04:35:07;;;;;;;;;;;;;;;;;;;;;
2024/01/24 04:38:15;;;;;;;9.10;2.80;;;;;;;3.87;84.90;96735.86;108239;1282;22578;-84
2024/01/24 04:41:44;;;;;;;;;;;;;;;;;;;;;
2024/01/24 04:44:41;;;;;;;6.00;2.20;;;;;;;3.90;84.87;96719.33;108252;1284;25414;-84
2024/01/24 04:48:09;;;;;;;7.40;2.80;;;;;;;3.92;84.90;96721.36;108267;1284;137258;-84
2024/01/24 04:51:27;;;;;;;6.00;2.40;;;;;;;3.94;84.57;96721.87;108358;1284;22530;-84
2024/01/24 04:54:54;;;;;;;4.40;2.50;;;;;;;4.00;84.30;96722.45;108281;1284;137945;-84
2024/01/24 04:58:21;;;;;;;10.60;2.60;;;;;;;4.05;84.23;96717.66;108443;1278;24226;-85
2024/01/24 05:01:49;;;;;;;7.60;3.40;;;;;;;4.07;84.25;96720.79;108292;1273;137719;-84
2024/01/24 05:05:16;;;;;;;6.70;2.70;;;;;;;4.06;84.35;96725.11;108296;1284;22549;-84
2024/01/24 05:08:28;;;;;;;;;;;;;;;;;;;;;
2024/01/24 05:11:56;;;;;;;6.90;3.00;;;;;;;4.04;84.23;96718.11;108325;1284;137802;-84
2024/01/24 05:15:24;;;;;;;6.20;2.60;;;;;;;3.98;84.55;96718.25;108272;1281;23306;-85
2024/01/24 05:18:42;;;;;;;;;;;;;;;;;;;;;
2024/01/24 05:22:21;;;;;;;5.40;2.60;;;;;;;3.89;85.42;96713.59;108468;1281;22535;-84
2024/01/24 05:25:37;;;;;;;7.20;3.50;;;;;;;3.89;85.74;96704.70;108193;1284;137974;-84
2024/01/24 05:29:06;;;;;;;5.90;2.40;;;;;;;3.86;85.82;96702.49;108214;1284;22534;-84
2024/01/24 05:32:32;;;;;;;4.20;2.90;;;;;;;3.84;86.68;96692.23;108654;1283;25978;-84
2024/01/24 05:36:00;;;;;;;4.20;2.70;;;;;;;3.86;86.86;96682.26;108361;1283;24285;-84
2024/01/24 05:39:17;;;;;;;5.80;3.20;;;;;;;3.85;87.71;96664.20;108277;1278;24706;-84
2024/01/24 05:42:37;;;;;;;5.80;3.20;;;;;;;3.84;89.19;96654.39;108301;1284;138602;-85
2024/01/24 05:46:03;;;;;;;5.10;2.50;;;;;;;3.79;91.08;96640.56;108346;1283;22529;-84
2024/01/24 05:49:30;;;;;;;3.90;2.50;;;;;;;3.79;91.68;96631.20;108239;1278;138277;-84
2024/01/24 05:52:51;;;;;;;5.10;2.70;;;;;;;3.79;92.23;96629.15;108029;1284;22654;-84
2024/01/24 05:56:18;;;;;;;4.80;2.40;;;;;;;3.74;92.77;96615.47;108230;1281;137840;-84
2024/01/24 05:59:32;;;;;;;4.90;2.50;;;;;;;3.73;94.23;96600.82;108396;1284;22564;-85
2024/01/24 06:02:53;;;;;;;5.00;2.80;;;;;;;3.76;93.93;96607.77;108213;1284;25682;-84
2024/01/24 06:06:21;;;;;;;3.20;2.00;;;;;;;3.74;95.22;96579.00;108290;1284;138208;-84
2024/01/24 06:09:48;;;;;;;5.60;2.40;;;;;;;3.75;95.68;96567.05;108294;1276;22589;-84
2024/01/24 06:13:15;;;;;;;3.80;2.60;;;;;;;3.75;96.31;96557.02;108166;1281;137799;-84
2024/01/24 06:16:30;;;;;;;7.30;3.60;;;;;;;3.75;96.69;96542.05;108349;1284;22541;-84
2024/01/24 06:19:59;;;;;;;7.30;3.20;;;;;;;3.76;97.89;96532.77;108352;1284;137815;-84
2024/01/24 06:23:26;;;;;;;20.90;10.50;;;;;;;3.80;97.26;96523.78;108313;1282;22590;-84
2024/01/24 06:26:54;;;;;;;4.90;2.50;;;;;;;3.84;98.77;96501.54;108302;1283;22556;-84
2024/01/24 06:30:29;;;;;;;4.60;2.60;;;;;;;3.94;97.94;96496.34;108182;1284;137986;-84
2024/01/24 06:33:50;;;;;;;5.90;2.60;;;;;;;3.99;97.88;96486.50;108203;1281;22568;-84
2024/01/24 06:36:51;;;;;;;;;;;;;;;;;;;;;
2024/01/24 06:39:44;;;;;;;;;;;;;;;4.01;97.71;96471.33;108411;1283;22555;-84
2024/01/24 06:43:14;;;;;;;10.70;5.00;;;;;;;4.07;97.69;96482.29;108284;1271;124426;-84
2024/01/24 06:46:36;;;;;;;4.20;2.10;;;;;;;4.08;97.43;96493.05;108263;1284;22611;-84
2024/01/24 06:49:57;;;;;;;9.20;3.70;;;;;;;4.10;97.52;96519.02;108323;1284;138309;-85
2024/01/24 06:53:14;;;;;;;3.50;2.30;;;;;;;4.13;96.71;96515.84;108529;1280;22588;-84
2024/01/24 06:56:20;;;;;;;5.80;3.00;;;;;;;4.18;96.82;96506.67;108217;1283;138323;-85
2024/01/24 06:59:32;;;;;;;2.60;1.50;;;;;;;4.24;96.94;96511.47;108461;1283;22569;-84
2024/01/24 07:03:00;;;;;;;3.00;1.70;;;;;;;4.24;96.62;96514.70;108363;1275;22553;-84
2024/01/24 07:06:11;;;;;;;3.10;2.20;;;;;;;4.30;96.57;96516.27;108219;1262;137690;-85
2024/01/24 07:09:39;;;;;;;32.00;14.80;;;;;;;4.28;96.93;96528.63;108446;1282;22534;-84
2024/01/24 07:12:59;;;;;;;18.70;5.70;;;;;;;4.23;97.37;96528.30;108299;1282;139174;-83
2024/01/24 07:16:26;;;;;;;13.20;3.70;;;;;;;4.19;97.91;96504.98;108532;1281;22679;-84
2024/01/24 07:19:53;;;;;;;3.30;1.60;;;;;;;4.19;98.36;96489.30;108401;1283;137976;-85
2024/01/24 07:23:19;;;;;;;4.40;1.90;;;;;;;4.19;98.92;96469.66;108597;1275;24509;-84
2024/01/24 07:26:56;;;;;;;;;;;;;;;;;;;;;
2024/01/24 07:30:18;;;;;;;1.60;1.10;;;;;;;4.11;99.84;96451.27;108324;1281;22579;-84
2024/01/24 07:33:30;;;;;;;1.80;1.00;;;;;;;4.07;100.00;96453.48;108425;1279;22542;-84
2024/01/24 07:36:58;;;;;;;3.70;1.60;;;;;;;4.03;100.00;96434.98;108334;1281;138104;-84
2024/01/24 07:40:15;;;;;;;;;;;;;;;;;;;;;
2024/01/24 07:43:45;;;;;;;2.10;1.40;;;;;;;4.04;100.00;96428.94;108345;1283;137985;-84
2024/01/24 07:47:12;;;;;;;4.30;2.20;;;;;;;4.07;100.00;96433.28;108404;1282;24213;-84
2024/01/24 07:50:39;;;;;;;10.80;5.60;;;;;;;4.07;100.00;96436.02;108290;1279;138231;-82
2024/01/24 07:54:07;;;;;;;8.00;2.20;;;;;;;4.07;100.00;96444.89;108541;1283;22574;-84
2024/01/24 07:57:34;;;;;;;1.90;1.10;;;;;;;4.09;100.00;96447.97;108429;1282;22537;-87
2024/01/24 08:01:02;;;;;;;1.40;0.80;;;;;;;4.10;100.00;96430.56;108316;1276;138094;-86
2024/01/24 08:04:31;;;;;;;1.20;0.90;;;;;;;4.12;100.00;96418.42;108552;1282;23453;-86
2024/01/24 08:11:26;;;;;;;0.90;0.70;;;;;;;4.24;100.00;96381.48;108330;1284;23368;-87
2024/01/24 08:14:53;;;;;;;1.30;1.00;;;;;;;4.33;100.00;96385.41;108184;1277;137569;-87
2024/01/24 08:18:20;;;;;;;1.80;1.50;;;;;;;4.42;100.00;96365.70;108428;1284;24292;-87
2024/01/24 08:21:47;;;;;;;0.70;0.70;;;;;;;4.53;100.00;96372.58;108322;1284;24300;-87
2024/01/24 08:25:14;;;;;;;1.10;0.80;;;;;;;4.60;100.00;96370.70;108179;1283;138720;-86
2024/01/24 08:28:35;;;;;;;0.80;0.80;;;;;;;4.66;100.00;96371.02;108295;1283;22541;-85
2024/01/24 08:32:04;;;;;;;1.30;0.80;;;;;;;4.68;100.00;96368.74;108186;1284;137984;-86
2024/01/24 08:35:39;;;;;;;;;;;;;;;;;;;;;
2024/01/24 08:39:03;;;;;;;1.00;0.60;;;;;;;4.71;100.00;96372.05;108145;1284;138604;-85
2024/01/24 08:42:28;;;;;;;1.20;0.80;;;;;;;4.71;100.00;96362.93;108176;1284;22576;-85
2024/01/24 08:46:05;;;;;;;;;;;;;;;;;;;;;
2024/01/24 08:49:28;;;;;;;2.10;1.80;;;;;;;4.90;100.00;96349.86;108160;1284;138304;-86
2024/01/24 08:52:56;;;;;;;2.40;1.30;;;;;;;4.90;100.00;96334.44;108234;1284;22530;-86
2024/01/24 08:56:18;;;;;;;5.90;2.60;;;;;;;4.86;100.00;96340.11;108091;1281;137939;-86
2024/01/24 08:59:43;;;;;;;6.80;2.20;;;;;;;4.89;100.00;96348.76;108369;1278;22558;-85
2024/01/24 09:03:11;;;;;;;11.10;3.00;;;;;;;4.90;100.00;96354.77;108177;1278;137985;-85
2024/01/24 09:06:30;;;;;;;;;;;;;;;;;;;;;
2024/01/24 09:10:00;;;;;;;2.90;1.30;;;;;;;4.99;100.00;96348.28;108280;1283;22572;-85
2024/01/24 09:13:12;;;;;;;1.30;1.00;;;;;;;4.98;100.00;96351.63;108298;1282;138150;-86
2024/01/24 09:16:40;;;;;;;4.50;2.00;;;;;;;5.02;100.00;96341.84;108360;1283;22569;-86
2024/01/24 09:20:07;;;;;;;21.40;9.90;;;;;;;5.04;100.00;96325.27;108241;1282;138057;-86
2024/01/24 09:23:27;;;;;;;3.00;1.40;;;;;;;5.07;100.00;96304.36;108333;1279;22613;-86
2024/01/24 09:26:55;;;;;;;2.10;1.00;;;;;;;5.11;100.00;96307.64;108249;1281;138031;-86
2024/01/24 09:30:22;;;;;;;1.60;0.90;;;;;;;5.10;100.00;96313.56;108314;1283;23229;-86
2024/01/24 09:33:51;;;;;;;1.00;0.70;;;;;;;5.11;100.00;96298.98;108676;1282;22582;-86
2024/01/24 09:37:19;;;;;;;8.40;2.00;;;;;;;5.13;100.00;96300.05;108299;1282;137314;-86
2024/01/24 09:40:46;;;;;;;1.20;0.80;;;;;;;5.14;100.00;96309.01;108289;1282;22530;-86
2024/01/24 09:44:14;;;;;;;1.20;0.90;;;;;;;5.19;100.00;96302.58;108260;1276;138089;-86
2024/01/24 09:47:41;;;;;;;1.60;1.00;;;;;;;5.23;100.00;96290.35;108363;1277;22764;-86
2024/01/24 09:51:01;;;;;;;;;;;;;;;;;;;;;
2024/01/24 09:54:33;;;;;;;0.80;0.70;;;;;;;5.18;100.00;96269.84;108376;1283;24251;-86
2024/01/24 09:58:00;;;;;;;1.30;0.70;;;;;;;5.24;100.00;96281.65;108371;1282;22568;-86
2024/01/24 10:01:27;;;;;;;3.60;2.90;;;;;;;5.29;100.00;96271.67;108290;1282;138750;-86
2024/01/24 10:04:54;;;;;;;19.40;7.40;;;;;;;5.32;100.00;96252.69;108359;1283;24218;-86
2024/01/24 10:08:22;;;;;;;2.70;1.20;;;;;;;5.34;100.00;96252.20;108264;1282;138151;-86
2024/01/24 10:11:49;;;;;;;5.30;1.90;;;;;;;5.45;100.00;96232.63;108452;1282;22581;-86
2024/01/24 10:15:16;;;;;;;9.70;4.40;;;;;;;5.57;100.00;96218.75;108345;1279;138024;-87
2024/01/24 10:18:45;;;;;;;9.50;3.90;;;;;;;5.64;100.00;96220.58;108407;1282;22858;-86
2024/01/24 10:22:04;;;;;;;1.60;0.90;;;;;;;5.67;100.00;96228.95;108479;1284;24252;-86
2024/01/24 10:25:31;;;;;;;1.20;0.80;;;;;;;5.83;100.00;96217.78;108318;1283;22546;-86
2024/01/24 10:29:09;;;;;;;;;;;;;;;;;;;;;
2024/01/24 10:32:35;;;;;;;12.10;6.70;;;;;;;5.98;100.00;96222.14;108331;1283;138674;-86
2024/01/24 10:36:01;;;;;;;13.80;4.00;;;;;;;6.02;100.00;96219.84;108286;1283;22594;-86
2024/01/24 10:39:28;;;;;;;10.50;3.50;;;;;;;6.17;100.00;96226.16;108388;1282;138517;-86
2024/01/24 10:42:59;;;;;;;29.20;9.10;;;;;;;6.31;100.00;96247.92;108582;1282;22575;-86
2024/01/24 10:46:33;;;;;;;49.70;20.60;;;;;;;6.39;100.00;96230.66;108464;1282;23958;-86
2024/01/24 10:49:59;;;;;;;42.80;15.80;;;;;;;6.48;100.00;96216.27;108435;1279;138828;-86
2024/01/24 10:53:27;;;;;;;18.70;6.10;;;;;;;6.54;100.00;96207.64;108439;1282;22611;-86
2024/01/24 10:56:54;;;;;;;7.20;2.60;;;;;;;6.67;100.00;96190.66;108369;1276;138799;-86
2024/01/24 11:00:22;;;;;;;23.70;8.50;;;;;;;6.87;100.00;96188.91;108423;1280;25574;-87
2024/01/24 11:03:48;;;;;;;29.40;10.80;;;;;;;7.02;100.00;96189.54;108457;1282;138937;-86
2024/01/24 11:07:16;;;;;;;11.00;4.00;;;;;;;7.11;100.00;96176.30;108530;1282;22546;-86
2024/01/24 11:10:56;;;;;;;1.90;1.10;;;;;;;7.21;100.00;96188.14;108287;1284;25370;-86
2024/01/24 11:14:33;;;;;;;3.50;2.20;;;;;;;7.40;100.00;96202.62;108251;1281;138250;-87
2024/01/24 11:18:01;;;;;;;3.60;1.80;;;;;;;7.55;100.00;96195.70;108331;1284;22561;-87
2024/01/24 11:21:32;;;;;;;6.10;2.70;;;;;;;7.61;100.00;96193.47;108234;1276;138580;-87
2024/01/24 11:24:59;;;;;;;3.50;1.80;;;;;;;7.65;100.00;96158.81;108224;1278;22640;-86
2024/01/24 11:28:28;;;;;;;4.20;2.20;;;;;;;7.72;100.00;96165.70;108363;1284;24056;-87
2024/01/24 11:31:55;;;;;;;7.90;3.10;;;;;;;7.84;100.00;96192.67;108280;1277;138663;-86
2024/01/24 11:35:22;;;;;;;5.20;2.80;;;;;;;7.93;100.00;96178.00;108411;1276;22591;-87
2024/01/24 11:38:59;;;;;;;2.80;1.80;;;;;;;8.05;100.00;96145.89;108022;1284;138145;-86
2024/01/24 11:42:30;;;;;;;3.20;2.10;;;;;;;8.22;100.00;96140.60;108451;1284;24217;-85
2024/01/24 11:46:10;;;;;;;4.70;2.10;;;;;;;8.39;100.00;96140.56;108375;1276;138731;-86
2024/01/24 11:49:36;;;;;;;8.10;3.20;;;;;;;8.60;100.00;96143.38;108254;1284;139002;-86
2024/01/24 11:53:04;;;;;;;2.80;1.80;;;;;;;8.77;100.00;96126.36;108329;1284;27446;-86
2024/01/24 11:56:35;;;;;;;2.70;1.30;;;;;;;8.92;100.00;96109.45;108284;1284;138148;-85
2024/01/24 11:59:59;;;;;;;2.90;1.50;;;;;;;9.00;100.00;96117.48;108334;1284;23269;-86
2024/01/24 12:03:26;;;;;;;3.50;2.90;;;;;;;9.01;100.00;96128.38;108330;1283;138523;-86
2024/01/24 12:06:53;;;;;;;2.80;1.60;;;;;;;9.00;100.00;96123.93;108382;1284;23259;-86
2024/01/24 12:10:22;;;;;;;3.70;1.70;;;;;;;8.94;100.00;96120.58;108404;1284;22612;-86
2024/01/24 12:13:49;;;;;;;3.10;2.00;;;;;;;8.89;100.00;96127.44;108241;1284;138490;-86
2024/01/24 12:17:17;;;;;;;2.80;1.70;;;;;;;8.87;100.00;96122.08;108321;1284;22721;-85
2024/01/24 12:20:44;;;;;;;4.80;2.90;;;;;;;8.87;100.00;96133.83;108234;1284;138725;-86
2024/01/24 12:24:24;;;;;;;;;;;;;;;;;;;;;
2024/01/24 12:27:46;;;;;;;8.50;3.10;;;;;;;8.84;100.00;96131.64;108311;1284;138434;-86
2024/01/24 12:31:15;;;;;;;30.00;15.10;;;;;;;8.82;100.00;96135.88;108368;1283;22537;-86
2024/01/24 12:34:42;;;;;;;7.90;3.10;;;;;;;8.78;100.00;96123.23;108535;1284;22646;-85
2024/01/24 12:38:11;;;;;;;3.50;1.60;;;;;;;8.75;100.00;96143.44;108233;1276;138407;-86
2024/01/24 12:41:39;;;;;;;5.00;2.40;;;;;;;8.74;100.00;96138.30;108327;1284;22560;-86
2024/01/24 12:45:06;;;;;;;7.30;3.70;;;;;;;8.73;100.00;96146.48;108337;1284;138184;-86
2024/01/24 12:48:35;;;;;;;9.80;3.90;;;;;;;8.76;100.00;96149.55;108324;1277;25016;-85
2024/01/24 12:52:02;;;;;;;8.20;3.20;;;;;;;8.76;100.00;96147.36;108269;1283;138638;-86
2024/01/24 12:55:29;;;;;;;17.00;9.10;;;;;;;8.75;100.00;96148.58;108482;1276;23110;-86
2024/01/24 12:58:57;;;;;;;14.60;5.70;;;;;;;8.74;100.00;96145.70;108318;1281;22903;-86
2024/01/24 13:02:24;;;;;;;22.20;12.00;;;;;;;8.75;100.00;96149.66;108341;1284;22998;-86
2024/01/24 13:05:51;;;;;;;11.00;6.50;;;;;;;8.74;99.95;96131.88;108338;1284;22624;-86
2024/01/24 13:09:20;;;;;;;6.50;4.50;;;;;;;8.75;100.00;96130.77;108229;1278;138419;-86
2024/01/24 13:12:58;;;;;;;;;;;;;;;;;;;;;
2024/01/24 13:16:22;;;;;;;3.30;2.20;;;;;;;8.77;100.00;96144.55;108394;1283;138139;-86
2024/01/24 13:19:49;;;;;;;6.80;3.20;;;;;;;8.77;100.00;96133.79;108386;1282;25561;-86
2024/01/24 13:23:08;;;;;;;;;;;;;;;;;;;;;
2024/01/24 13:26:38;;;;;;;6.40;2.90;;;;;;;8.83;100.00;96125.88;108321;1282;138377;-86
2024/01/24 13:30:05;;;;;;;3.90;1.70;;;;;;;8.86;100.00;96130.19;108351;1283;22544;-86
2024/01/24 13:33:32;;;;;;;3.70;1.80;;;;;;;8.90;100.00;96126.30;108271;1283;138174;-86
2024/01/24 13:37:01;;;;;;;2.80;1.70;;;;;;;8.94;100.00;96126.46;108409;1283;22590;-85
2024/01/24 13:40:29;;;;;;;4.40;2.10;;;;;;;8.95;100.00;96123.63;108455;1277;138723;-86
2024/01/24 13:43:56;;;;;;;3.50;1.70;;;;;;;8.93;100.00;96120.59;104540;1276;5391072;-86
2024/01/24 13:47:38;;;;;;;2.40;1.70;;;;;;;8.87;100.00;96108.99;108475;1282;25983;-86
2024/01/24 13:51:06;;;;;;;3.40;1.80;;;;;;;8.82;100.00;96107.83;108042;1283;138455;-86
2024/01/24 13:54:34;;;;;;;3.30;2.10;;;;;;;8.79;100.00;96106.15;108011;1283;22618;-85
2024/01/24 13:58:01;;;;;;;20.40;12.60;;;;;;;8.78;100.00;96109.53;107912;1284;138250;-86
2024/01/24 14:01:38;;;;;;;;;;;;;;;;;;;;;
2024/01/24 14:05:01;;;;;;;1.90;1.30;;;;;;;8.76;100.00;96130.83;108449;1283;22630;-86
2024/01/24 14:08:31;;;;;;;16.60;5.80;;;;;;;8.72;100.00;96134.95;108440;1283;138353;-86
2024/01/24 14:12:19;;;;;;;48.40;25.10;;;;;;;8.69;100.00;96134.23;108270;1284;22556;-86
2024/01/24 14:15:28;;;;;;;3.60;2.10;;;;;;;8.69;100.00;96140.33;108215;1284;138685;-86
2024/01/24 14:18:55;;;;;;;5.10;2.50;;;;;;;8.66;100.00;96118.34;108341;1284;22545;-86
2024/01/24 14:22:22;;;;;;;6.30;2.30;;;;;;;8.64;100.00;96109.77;108268;1277;138146;-86
2024/01/24 14:25:50;;;;;;;17.30;8.20;;;;;;;8.62;100.00;96119.45;108360;1284;22552;-86
2024/01/24 14:29:17;;;;;;;9.90;4.20;;;;;;;8.62;100.00;96119.27;108409;1283;22592;-86
2024/01/24 14:32:45;;;;;;;6.40;3.40;;;;;;;8.60;100.00;96116.30;108385;1276;22559;-86
2024/01/24 14:36:12;;;;;;;5.10;2.40;;;;;;;8.61;100.00;96127.16;108370;1284;22551;-86
2024/01/24 14:39:40;;;;;;;12.00;6.70;;;;;;;8.61;100.00;96130.95;108317;1277;138721;-86
2024/01/24 14:43:08;;;;;;;14.30;6.10;;;;;;;8.62;100.00;96130.73;108441;1282;22560;-86
2024/01/24 14:46:37;;;;;;;9.00;3.50;;;;;;;8.62;100.00;96148.34;108293;1276;138497;-86
2024/01/24 14:50:04;;;;;;;3.50;2.20;;;;;;;8.63;100.00;96160.74;108523;1284;22560;-85
2024/01/24 14:53:32;;;;;;;3.00;1.90;;;;;;;8.63;100.00;96160.59;108482;1283;23132;-86
2024/01/24 14:56:59;;;;;;;17.80;6.60;;;;;;;8.55;100.00;96171.77;108442;1277;23796;-86
2024/01/24 15:00:48;;;;;;;3.60;2.40;;;;;;;8.44;100.00;96180.20;108429;1283;22511;-86
2024/01/24 15:03:58;;;;;;;7.30;3.60;;;;;;;8.29;100.00;96184.45;108384;1284;25417;-87
2024/01/24 15:07:25;;;;;;;6.00;3.50;;;;;;;8.22;100.00;96191.20;108556;1277;22928;-86
2024/01/24 15:10:55;;;;;;;18.10;8.30;;;;;;;8.12;100.00;96178.41;108360;1284;137202;-86
2024/01/24 15:14:24;;;;;;;7.90;4.70;;;;;;;8.03;100.00;96182.59;108549;1281;23358;-86
2024/01/24 15:17:51;;;;;;;10.00;6.70;;;;;;;7.94;100.00;96227.38;108456;1277;22531;-86
2024/01/24 15:21:19;;;;;;;10.30;6.60;;;;;;;7.88;100.00;96270.71;108314;1284;138872;-86
2024/01/24 15:24:37;;;;;;;;;;;;;;;;;;;;;
2024/01/24 15:28:06;;;;;;;6.30;4.10;;;;;;;7.69;100.00;96256.48;108336;1261;138100;-85
2024/01/24 15:31:39;;;;;;;11.70;7.00;;;;;;;7.63;100.00;96275.21;108454;1284;22610;-86
2024/01/24 15:34:47;;;;;;;;;;;;;;;7.59;100.00;96266.23;108197;1284;138251;-87
2024/01/24 15:38:14;;;;;;;7.70;6.00;;;;;;;7.56;100.00;96255.20;108550;1284;22542;-86
2024/01/24 15:41:42;;;;;;;9.80;8.60;;;;;;;7.51;100.00;96259.16;108395;1270;22590;-86
2024/01/24 15:45:24;;;;;;;9.00;7.60;;;;;;;7.48;100.00;96266.20;108351;1284;138726;-86
2024/01/24 15:48:49;;;;;;;10.10;8.40;;;;;;;7.45;100.00;96261.67;108274;1284;22719;-86
2024/01/24 15:52:17;;;;;;;8.60;7.10;;;;;;;7.42;100.00;96262.56;108435;1283;138390;-85
2024/01/24 15:55:43;;;;;;;8.90;6.00;;;;;;;7.39;100.00;96263.02;108421;1281;22570;-86
2024/01/24 15:59:10;;;;;;;9.40;6.30;;;;;;;7.36;100.00;96259.73;108302;1284;138868;-86
2024/01/24 16:02:39;;;;;;;14.40;8.70;;;;;;;7.35;100.00;96262.94;108328;1284;22601;-86
2024/01/24 16:06:12;;;;;;;9.60;6.40;;;;;;;7.33;100.00;96260.77;108418;1281;22605;-86
2024/01/24 16:09:39;;;;;;;38.50;18.40;;;;;;;7.30;100.00;96259.34;108331;1284;139113;-86
2024/01/24 16:13:08;;;;;;;199.60;94.50;;;;;;;7.26;100.00;96259.97;108418;1284;23750;-86
2024/01/24 16:16:36;;;;;;;82.20;36.40;;;;;;;7.24;100.00;96258.96;108291;1284;139184;-86
2024/01/24 16:20:06;;;;;;;67.50;30.30;;;;;;;7.20;100.00;96264.45;108404;1284;26514;-86
2024/01/24 16:23:31;;;;;;;175.90;71.80;;;;;;;7.16;100.00;96269.16;108418;1276;22540;-86
2024/01/24 16:26:58;;;;;;;63.40;22.90;;;;;;;7.13;100.00;96268.63;108425;1284;22575;-86
2024/01/24 16:30:30;;;;;;;20.50;8.50;;;;;;;7.10;100.00;96271.80;108491;1283;22537;-86
2024/01/24 16:33:55;;;;;;;259.40;111.30;;;;;;;7.10;100.00;96288.66;108537;1284;22573;-85
2024/01/24 16:37:23;;;;;;;66.00;21.80;;;;;;;7.10;100.00;96301.42;108469;1276;23257;-86
2024/01/24 16:40:51;;;;;;;19.30;8.90;;;;;;;7.12;100.00;96301.61;108350;1281;138836;-86